createdAt,value
2023-03-22T00:01:13.122Z,7.08
2023-03-22T00:03:39.916Z,7.00
2023-03-22T00:06:07.170Z,6.96
2023-03-22T00:08:34.133Z,6.89
2023-03-22T00:11:01.338Z,6.85
2023-03-22T00:13:27.915Z,6.83
2023-03-22T00:15:55.945Z,6.78
2023-03-22T00:18:22.504Z,6.74
2023-03-22T00:20:54.579Z,6.67
2023-03-22T00:23:21.751Z,6.57
2023-03-22T00:25:48.504Z,6.52
2023-03-22T00:28:16.403Z,6.47
2023-03-22T00:30:50.777Z,6.43
2023-03-22T00:33:17.454Z,6.35
2023-03-22T00:35:57.361Z,6.31
2023-03-22T00:38:39.478Z,6.26
2023-03-22T00:41:10.454Z,6.20
2023-03-22T00:43:37.934Z,6.21
2023-03-22T00:46:05.686Z,6.19
2023-03-22T00:48:32.559Z,6.16
2023-03-22T00:50:59.193Z,6.12
2023-03-22T00:53:26.163Z,6.07
2023-03-22T00:55:52.866Z,6.03
2023-03-22T00:58:19.427Z,6.00
2023-03-22T01:00:46.157Z,5.93
2023-03-22T01:03:14.294Z,5.86
2023-03-22T01:05:40.957Z,5.80
2023-03-22T01:08:10.278Z,5.75
2023-03-22T01:10:38.327Z,5.70
2023-03-22T01:13:05.828Z,5.64
2023-03-22T01:15:33.049Z,5.62
2023-03-22T01:18:00.133Z,5.51
2023-03-22T01:20:27.159Z,5.49
2023-03-22T01:22:53.869Z,5.45
2023-03-22T01:25:20.822Z,5.39
2023-03-22T01:27:47.466Z,5.35
2023-03-22T01:30:14.408Z,5.29
2023-03-22T01:32:41.335Z,5.27
2023-03-22T01:35:08.879Z,5.24
2023-03-22T01:37:35.697Z,5.17
2023-03-22T01:40:02.292Z,5.12
2023-03-22T01:42:28.914Z,5.09
2023-03-22T01:45:13.977Z,5.06
2023-03-22T01:47:52.195Z,5.07
2023-03-22T01:50:19.965Z,5.05
2023-03-22T01:52:47.597Z,5.06
2023-03-22T01:55:14.282Z,5.11
2023-03-22T01:57:42.388Z,5.11
2023-03-22T02:00:15.957Z,5.04
2023-03-22T02:02:44.163Z,4.98
2023-03-22T02:05:12.298Z,5.01
2023-03-22T02:07:41.679Z,4.97
2023-03-22T02:10:14.722Z,4.93
2023-03-22T02:13:08.962Z,4.89
2023-03-22T02:15:50.977Z,4.82
2023-03-22T02:18:40.671Z,4.80
2023-03-22T02:21:13.416Z,4.79
2023-03-22T02:23:49.109Z,4.78
2023-03-22T02:26:33.861Z,4.78
2023-03-22T02:29:27.358Z,4.72
2023-03-22T02:32:15.806Z,4.72
2023-03-22T02:35:27.317Z,4.70
2023-03-22T02:37:53.773Z,4.65
2023-03-22T02:41:11.623Z,4.61
2023-03-22T02:44:04.743Z,4.57
2023-03-22T02:46:43.492Z,4.55
2023-03-22T02:49:38.095Z,4.50
2023-03-22T02:52:22.918Z,4.46
2023-03-22T02:55:01.804Z,4.37
2023-03-22T02:57:33.054Z,4.37
2023-03-22T03:00:01.386Z,4.32
2023-03-22T03:02:30.764Z,4.30
2023-03-22T03:04:58.130Z,4.33
2023-03-22T03:07:28.348Z,4.33
2023-03-22T03:09:55.156Z,4.43
2023-03-22T03:12:25.846Z,4.49
2023-03-22T03:14:52.626Z,4.53
2023-03-22T03:17:56.120Z,4.62
2023-03-22T03:20:38.437Z,4.67
2023-03-22T03:23:28.615Z,4.70
2023-03-22T03:26:01.680Z,4.78
2023-03-22T03:28:47.683Z,4.82
2023-03-22T03:31:25.891Z,4.81
2023-03-22T03:34:33.255Z,4.89
2023-03-22T03:37:08.469Z,4.89
2023-03-22T03:39:41.731Z,4.84
2023-03-22T03:42:12.690Z,4.89
2023-03-22T03:44:39.641Z,4.90
2023-03-22T03:47:08.637Z,4.94
2023-03-22T03:49:35.942Z,4.94
2023-03-22T03:52:04.905Z,4.97
2023-03-22T03:54:32.140Z,4.97
2023-03-22T03:56:58.850Z,4.95
2023-03-22T03:59:25.374Z,4.91
2023-03-22T04:01:52.709Z,4.91
2023-03-22T04:04:27.811Z,4.92
2023-03-22T04:07:01.406Z,4.92
2023-03-22T04:09:36.713Z,4.93
2023-03-22T04:12:03.674Z,4.94
2023-03-22T04:14:30.839Z,4.94
2023-03-22T04:16:57.612Z,4.91
2023-03-22T04:19:24.256Z,4.98
2023-03-22T04:21:53.297Z,5.13
2023-03-22T04:24:21.947Z,5.25
2023-03-22T04:26:48.601Z,5.30
2023-03-22T04:29:16.015Z,5.29
2023-03-22T04:31:42.618Z,5.32
2023-03-22T04:34:09.195Z,5.34
2023-03-22T04:36:39.459Z,5.37
2023-03-22T04:39:09.668Z,5.39
2023-03-22T04:41:37.155Z,5.40
2023-03-22T04:44:05.118Z,5.44
2023-03-22T04:46:34.833Z,5.46
2023-03-22T04:49:01.703Z,5.50
2023-03-22T04:51:28.604Z,5.53
2023-03-22T04:53:55.216Z,5.57
2023-03-22T04:56:22.458Z,5.58
2023-03-22T04:58:49.140Z,5.59
2023-03-22T05:01:18.021Z,5.62
2023-03-22T05:03:48.465Z,5.64
2023-03-22T05:06:15.836Z,5.65
2023-03-22T05:08:42.591Z,5.66
2023-03-22T05:11:14.964Z,5.67
2023-03-22T05:13:41.508Z,5.67
2023-03-22T05:16:09.550Z,5.68
2023-03-22T05:18:42.222Z,5.64
2023-03-22T05:21:16.227Z,5.68
2023-03-22T05:23:44.680Z,5.64
2023-03-22T05:26:15.990Z,5.67
2023-03-22T05:28:43.748Z,5.66
2023-03-22T05:31:11.869Z,5.64
2023-03-22T05:33:39.232Z,5.62
2023-03-22T05:36:06.409Z,5.63
2023-03-22T05:38:33.059Z,5.67
2023-03-22T05:40:59.722Z,5.70
2023-03-22T05:43:26.472Z,5.71
2023-03-22T05:45:53.066Z,5.77
2023-03-22T05:48:19.698Z,5.78
2023-03-22T05:50:46.546Z,5.81
2023-03-22T05:53:13.140Z,5.86
2023-03-22T05:55:39.673Z,5.89
2023-03-22T05:58:06.449Z,5.95
2023-03-22T06:00:33.225Z,5.96
2023-03-22T06:03:03.575Z,6.01
2023-03-22T06:05:32.879Z,6.07
2023-03-22T06:08:00.016Z,6.11
2023-03-22T06:10:29.575Z,6.17
2023-03-22T06:12:56.257Z,6.20
2023-03-22T06:15:22.843Z,6.22
2023-03-22T06:17:49.396Z,6.27
2023-03-22T06:20:16.091Z,6.30
2023-03-22T06:22:42.829Z,6.34
2023-03-22T06:25:10.986Z,6.38
2023-03-22T06:27:38.301Z,6.45
2023-03-22T06:30:05.605Z,6.50
2023-03-22T06:32:32.202Z,6.52
2023-03-22T06:34:58.904Z,6.61
2023-03-22T06:37:25.649Z,6.69
2023-03-22T06:39:52.318Z,6.78
2023-03-22T06:42:19.243Z,6.82
2023-03-22T06:44:46.031Z,6.94
2023-03-22T06:47:13.094Z,7.05
2023-03-22T06:49:40.288Z,7.15
2023-03-22T06:52:07.118Z,7.26
2023-03-22T06:54:34.234Z,7.37
2023-03-22T06:57:00.888Z,7.50
2023-03-22T06:59:27.943Z,7.60
2023-03-22T07:01:54.630Z,7.74
2023-03-22T07:04:23.683Z,7.80
2023-03-22T07:06:50.457Z,7.92
2023-03-22T07:09:17.182Z,8.03
2023-03-22T07:11:44.481Z,8.13
2023-03-22T07:14:11.345Z,8.20
2023-03-22T07:16:38.017Z,8.24
2023-03-22T07:19:04.681Z,8.28
2023-03-22T07:21:31.347Z,8.38
2023-03-22T07:23:58.265Z,8.37
2023-03-22T07:26:26.410Z,8.38
2023-03-22T07:28:53.584Z,8.42
2023-03-22T07:31:20.394Z,8.39
2023-03-22T07:33:48.276Z,8.45
2023-03-22T07:36:14.852Z,8.44
2023-03-22T07:38:41.927Z,8.45
2023-03-22T07:41:08.890Z,8.51
2023-03-22T07:43:50.871Z,8.55
2023-03-22T07:46:19.431Z,8.61
2023-03-22T07:48:46.015Z,8.66
2023-03-22T07:51:12.691Z,8.71
2023-03-22T07:53:39.399Z,8.80
2023-03-22T07:56:06.612Z,8.83
2023-03-22T07:58:33.200Z,8.77
2023-03-22T08:01:09.146Z,8.77
2023-03-22T08:03:36.684Z,8.78
2023-03-22T08:06:07.684Z,8.81
2023-03-22T08:08:36.961Z,8.92
2023-03-22T08:11:05.042Z,8.89
2023-03-22T08:13:32.055Z,8.92
2023-03-22T08:15:58.980Z,9.14
2023-03-22T08:18:26.069Z,9.15
2023-03-22T08:20:56.946Z,9.22
2023-03-22T08:23:38.607Z,9.49
2023-03-22T08:26:07.460Z,9.46
2023-03-22T08:28:34.404Z,9.68
2023-03-22T08:31:01.098Z,9.73
2023-03-22T08:33:28.705Z,9.88
2023-03-22T08:36:08.984Z,9.92
2023-03-22T08:38:35.633Z,9.89
2023-03-22T08:41:03.326Z,9.88
2023-03-22T08:43:29.995Z,9.98
2023-03-22T08:45:57.259Z,10.06
2023-03-22T08:48:24.971Z,10.24
2023-03-22T08:50:51.746Z,10.47
2023-03-22T08:53:18.408Z,10.43
2023-03-22T08:55:45.058Z,10.44
2023-03-22T08:58:13.028Z,10.49
2023-03-22T09:00:48.518Z,10.45
2023-03-22T09:03:16.876Z,10.39
2023-03-22T09:05:44.000Z,10.57
2023-03-22T09:08:18.589Z,10.65
2023-03-22T09:10:52.537Z,10.70
2023-03-22T09:13:20.058Z,10.72
2023-03-22T09:15:47.066Z,10.76
2023-03-22T09:18:15.113Z,10.81
2023-03-22T09:20:42.968Z,10.83
2023-03-22T09:23:09.848Z,10.97
2023-03-22T09:25:36.742Z,11.00
2023-03-22T09:28:04.220Z,10.99
2023-03-22T09:30:31.279Z,11.18
2023-03-22T09:32:57.875Z,11.42
2023-03-22T09:35:24.594Z,11.35
2023-03-22T09:37:53.461Z,11.35
2023-03-22T09:40:22.133Z,11.55
2023-03-22T09:42:51.968Z,11.80
2023-03-22T09:45:32.534Z,11.84
2023-03-22T09:47:59.958Z,11.89
2023-03-22T09:50:30.514Z,12.02
2023-03-22T09:52:58.466Z,12.46
2023-03-22T09:55:50.506Z,12.25
2023-03-22T09:58:26.337Z,12.08
2023-03-22T10:01:05.232Z,12.27
2023-03-22T10:03:37.725Z,12.64
2023-03-22T10:06:07.471Z,12.62
2023-03-22T10:08:43.293Z,12.68
2023-03-22T10:11:48.771Z,12.90
2023-03-22T10:14:30.857Z,12.83
2023-03-22T10:17:03.748Z,13.26
2023-03-22T10:20:01.066Z,13.26
2023-03-22T10:22:33.126Z,14.08
2023-03-22T10:25:00.879Z,13.75
2023-03-22T10:27:31.614Z,14.54
2023-03-22T10:30:04.323Z,14.34
2023-03-22T10:32:56.809Z,14.40
2023-03-22T10:35:24.894Z,14.28
2023-03-22T10:37:52.822Z,14.04
2023-03-22T10:40:34.986Z,14.00
2023-03-22T10:43:21.366Z,14.00
2023-03-22T10:45:50.924Z,13.92
2023-03-22T10:48:29.752Z,14.06
2023-03-22T10:50:58.515Z,13.99
2023-03-22T10:53:45.775Z,13.73
2023-03-22T10:56:15.792Z,13.93
2023-03-22T10:58:42.741Z,14.29
2023-03-22T11:01:12.314Z,14.89
2023-03-22T11:03:42.048Z,15.13
2023-03-22T11:06:14.801Z,15.97
2023-03-22T11:08:51.341Z,15.50
2023-03-22T11:11:25.495Z,16.04
2023-03-22T11:14:01.094Z,16.11
2023-03-22T11:16:29.492Z,16.07
2023-03-22T11:18:57.790Z,15.70
2023-03-22T11:21:34.229Z,15.50
2023-03-22T11:24:05.818Z,15.56
2023-03-22T11:26:40.600Z,15.23
2023-03-22T11:29:16.554Z,15.41
2023-03-22T11:32:00.315Z,15.26
2023-03-22T11:34:30.162Z,15.56
2023-03-22T11:37:00.299Z,15.49
2023-03-22T11:39:29.039Z,15.63
2023-03-22T11:42:01.832Z,15.22
2023-03-22T11:44:34.276Z,15.16
2023-03-22T11:47:02.880Z,15.25
2023-03-22T11:49:42.906Z,15.57
2023-03-22T11:52:18.492Z,15.47
2023-03-22T11:54:46.999Z,15.28
2023-03-22T11:57:17.380Z,15.63
2023-03-22T12:00:09.104Z,15.83
2023-03-22T12:02:48.682Z,15.89
2023-03-22T12:05:22.214Z,15.69
2023-03-22T12:07:55.404Z,15.84
2023-03-22T12:10:27.192Z,16.23
2023-03-22T12:12:59.285Z,16.70
2023-03-22T12:15:48.574Z,16.75
2023-03-22T12:18:22.234Z,16.44
2023-03-22T12:20:56.425Z,16.11
2023-03-22T12:23:29.066Z,15.65
2023-03-22T12:26:20.378Z,15.71
2023-03-22T12:28:56.371Z,15.85
2023-03-22T12:32:12.560Z,15.52
2023-03-22T12:34:44.548Z,15.81
2023-03-22T12:37:17.457Z,16.43
2023-03-22T12:39:52.293Z,16.70
2023-03-22T12:42:51.170Z,16.50
2023-03-22T12:45:25.397Z,16.65
2023-03-22T12:48:08.141Z,16.71
2023-03-22T12:50:42.277Z,16.99
2023-03-22T12:53:17.616Z,17.07
2023-03-22T12:55:46.709Z,17.26
2023-03-22T12:58:19.901Z,17.40
2023-03-22T13:00:58.294Z,17.81
2023-03-22T13:03:29.906Z,18.03
2023-03-22T13:06:27.992Z,18.44
2023-03-22T13:09:33.390Z,18.36
2023-03-22T13:12:15.394Z,18.33
2023-03-22T13:14:51.362Z,18.04
2023-03-22T13:17:24.029Z,17.82
2023-03-22T13:19:58.475Z,17.69
2023-03-22T13:22:51.390Z,17.59
2023-03-22T13:25:19.115Z,17.09
2023-03-22T13:27:45.729Z,16.98
2023-03-22T13:30:36.340Z,17.31
2023-03-22T13:33:08.556Z,17.27
2023-03-22T13:35:54.390Z,17.95
2023-03-22T13:38:28.695Z,18.70
2023-03-22T13:41:15.221Z,17.84
2023-03-22T13:43:54.449Z,17.15
2023-03-22T13:46:21.105Z,16.71
2023-03-22T13:48:48.282Z,16.70
2023-03-22T13:51:21.706Z,17.12
2023-03-22T13:54:17.896Z,17.33
2023-03-22T13:56:44.552Z,16.99
2023-03-22T13:59:33.795Z,16.58
2023-03-22T14:02:22.235Z,16.53
2023-03-22T14:04:53.236Z,16.64
2023-03-22T14:07:26.310Z,16.60
2023-03-22T14:10:01.405Z,16.53
2023-03-22T14:13:00.305Z,16.54
2023-03-22T14:15:32.310Z,16.09
2023-03-22T14:18:16.092Z,16.27
2023-03-22T14:20:44.420Z,15.84
